createdAt,value
2022-11-12T00:01:01.761Z,103195.94
2022-11-12T00:03:28.303Z,103187.88
2022-11-12T00:05:54.937Z,103184.34
2022-11-12T00:08:22.056Z,103169.34
2022-11-12T00:10:48.840Z,103185.56
2022-11-12T00:13:15.937Z,103175.81
2022-11-12T00:15:42.629Z,103182.91
2022-11-12T00:18:09.228Z,103184.75
2022-11-12T00:20:35.850Z,103190.16
2022-11-12T00:23:05.152Z,103196.59
2022-11-12T00:25:31.839Z,103194.34
2022-11-12T00:28:05.494Z,103201.47
2022-11-12T00:30:36.568Z,103197.13
2022-11-12T00:33:06.221Z,103184.63
2022-11-12T00:35:33.538Z,103199.16
2022-11-12T00:38:00.822Z,103189.56
2022-11-12T00:40:27.845Z,103191.22
2022-11-12T00:42:54.708Z,103197.50
2022-11-12T00:45:21.903Z,103200.16
2022-11-12T00:47:48.879Z,103197.56
2022-11-12T00:50:16.298Z,103201.28
2022-11-12T00:52:45.455Z,103192.34
2022-11-12T00:55:11.993Z,103200.53
2022-11-12T00:57:38.747Z,103196.88
2022-11-12T01:00:09.475Z,103186.91
2022-11-12T01:02:42.334Z,103180.75
2022-11-12T01:05:12.308Z,103186.97
2022-11-12T01:07:41.721Z,103188.00
2022-11-12T01:10:09.664Z,103180.06
2022-11-12T01:12:37.025Z,103185.66
2022-11-12T01:15:05.900Z,103190.84
2022-11-12T01:17:32.988Z,103192.88
2022-11-12T01:19:59.709Z,103194.66
2022-11-12T01:22:26.186Z,103191.03
2022-11-12T01:24:55.017Z,103201.13
2022-11-12T01:27:21.748Z,103198.44
2022-11-12T01:29:48.543Z,103193.84
2022-11-12T01:32:15.096Z,103190.31
2022-11-12T01:34:41.632Z,103176.94
2022-11-12T01:37:09.270Z,103184.03
2022-11-12T01:39:38.183Z,103174.28
2022-11-12T01:42:04.720Z,103169.00
2022-11-12T01:44:35.186Z,103164.44
2022-11-12T01:47:13.490Z,103176.94
2022-11-12T01:50:06.388Z,103180.53
2022-11-12T01:52:45.220Z,103170.00
2022-11-12T01:55:15.841Z,103160.94
2022-11-12T01:57:50.056Z,103169.13
2022-11-12T02:00:17.621Z,103167.50
2022-11-12T02:02:49.826Z,103172.13
2022-11-12T02:05:18.272Z,103170.56
2022-11-12T02:07:46.781Z,103158.97
2022-11-12T02:10:14.693Z,103159.03
2022-11-12T02:13:01.019Z,103167.91
2022-11-12T02:15:27.896Z,103150.19
2022-11-12T02:17:54.571Z,103153.81
2022-11-12T02:20:21.316Z,103167.34
2022-11-12T02:22:47.861Z,103155.81
2022-11-12T02:25:22.412Z,103165.56
2022-11-12T02:27:52.517Z,103167.34
2022-11-12T02:30:30.573Z,103163.09
2022-11-12T02:32:59.751Z,103168.34
2022-11-12T02:35:26.431Z,103156.00
2022-11-12T02:37:53.349Z,103169.31
2022-11-12T02:40:20.110Z,103170.22
2022-11-12T02:42:48.919Z,103177.44
2022-11-12T02:45:16.602Z,103179.28
2022-11-12T02:47:43.283Z,103164.19
2022-11-12T02:50:10.925Z,103167.63
2022-11-12T02:52:37.633Z,103168.56
2022-11-12T02:55:04.495Z,103170.34
2022-11-12T02:57:31.073Z,103158.75
2022-11-12T02:59:57.576Z,103160.72
2022-11-12T03:02:24.174Z,103162.47
2022-11-12T03:04:50.726Z,103161.66
2022-11-12T03:07:17.463Z,103155.47
2022-11-12T03:09:44.057Z,103153.75
2022-11-12T03:12:10.697Z,103161.88
2022-11-12T03:14:37.237Z,103154.72
2022-11-12T03:17:06.138Z,103143.22
2022-11-12T03:19:32.706Z,103153.06
2022-11-12T03:22:01.386Z,103149.47
2022-11-12T03:24:28.230Z,103154.84
2022-11-12T03:26:57.292Z,103157.66
2022-11-12T03:29:23.810Z,103143.28
2022-11-12T03:31:55.572Z,103153.00
2022-11-12T03:34:22.162Z,103155.06
2022-11-12T03:36:48.699Z,103163.13
2022-11-12T03:39:15.275Z,103163.13
2022-11-12T03:41:41.824Z,103158.72
2022-11-12T03:44:08.331Z,103164.94
2022-11-12T03:46:44.024Z,103160.47
2022-11-12T03:49:10.955Z,103155.25
2022-11-12T03:51:39.820Z,103158.72
2022-11-12T03:54:06.616Z,103149.81
2022-11-12T03:56:33.126Z,103163.31
2022-11-12T03:58:59.775Z,103160.06
2022-11-12T04:01:26.491Z,103168.00
2022-11-12T04:03:52.974Z,103171.53
2022-11-12T04:06:38.100Z,103170.56
2022-11-12T04:09:04.841Z,103167.78
2022-11-12T04:11:34.352Z,103178.56
2022-11-12T04:14:01.032Z,103170.34
2022-11-12T04:16:46.563Z,103161.47
2022-11-12T04:19:32.152Z,103163.13
2022-11-12T04:22:00.604Z,103151.56
2022-11-12T04:24:55.222Z,103164.75
2022-11-12T04:27:28.010Z,103159.34
2022-11-12T04:30:16.178Z,103151.34
2022-11-12T04:32:54.861Z,103149.38
2022-11-12T04:35:26.098Z,103128.88
2022-11-12T04:37:55.249Z,103129.63
2022-11-12T04:40:45.946Z,103132.28
2022-11-12T04:43:34.361Z,103133.31
2022-11-12T04:46:02.573Z,103129.69
2022-11-12T04:48:29.360Z,103117.28
2022-11-12T04:51:01.715Z,103124.34
2022-11-12T04:53:29.583Z,103132.28
2022-11-12T04:55:58.243Z,103130.47
2022-11-12T04:58:25.455Z,103126.00
2022-11-12T05:00:52.359Z,103131.41
2022-11-12T05:03:19.005Z,103127.88
2022-11-12T05:05:45.538Z,103125.25
2022-11-12T05:08:12.006Z,103112.94
2022-11-12T05:10:38.485Z,103120.19
2022-11-12T05:13:05.001Z,103110.34
2022-11-12T05:15:31.513Z,103118.47
2022-11-12T05:18:00.253Z,103111.19
2022-11-12T05:20:26.802Z,103107.56
2022-11-12T05:23:08.281Z,103114.72
2022-11-12T05:25:35.898Z,103113.78
2022-11-12T05:28:02.994Z,103110.00
2022-11-12T05:30:29.498Z,103103.66
2022-11-12T05:32:56.319Z,103092.00
2022-11-12T05:35:22.833Z,103100.81
2022-11-12T05:37:49.341Z,103112.41
2022-11-12T05:40:15.920Z,103109.63
2022-11-12T05:42:42.408Z,103107.00
2022-11-12T05:45:11.801Z,103107.81
2022-11-12T05:47:38.361Z,103112.34
2022-11-12T05:50:05.287Z,103113.22
2022-11-12T05:52:31.824Z,103102.31
2022-11-12T05:54:58.368Z,103109.56
2022-11-12T05:57:27.499Z,103096.22
2022-11-12T05:59:53.978Z,103097.28
2022-11-12T06:02:21.881Z,103100.81
2022-11-12T06:04:48.404Z,103123.13
2022-11-12T06:07:15.033Z,103113.38
2022-11-12T06:09:41.578Z,103126.81
2022-11-12T06:12:10.431Z,103132.16
2022-11-12T06:14:37.359Z,103121.44
2022-11-12T06:17:03.908Z,103115.16
2022-11-12T06:19:30.456Z,103120.63
2022-11-12T06:21:59.230Z,103113.50
2022-11-12T06:24:27.493Z,103113.59
2022-11-12T06:26:57.308Z,103111.00
2022-11-12T06:29:26.153Z,103117.28
2022-11-12T06:31:52.717Z,103111.88
2022-11-12T06:34:19.266Z,103119.19
2022-11-12T06:36:48.810Z,103109.22
2022-11-12T06:39:15.308Z,103116.31
2022-11-12T06:41:44.216Z,103108.38
2022-11-12T06:44:14.674Z,103118.06
2022-11-12T06:46:44.368Z,103119.88
2022-11-12T06:49:10.905Z,103124.34
2022-11-12T06:51:37.453Z,103129.63
2022-11-12T06:54:04.182Z,103125.28
2022-11-12T06:56:30.708Z,103121.72
2022-11-12T06:58:57.378Z,103124.28
2022-11-12T07:01:23.955Z,103134.13
2022-11-12T07:03:54.432Z,103124.22
2022-11-12T07:06:21.135Z,103126.97
2022-11-12T07:08:49.151Z,103134.94
2022-11-12T07:11:17.394Z,103141.19
2022-11-12T07:13:44.552Z,103138.38
2022-11-12T07:16:18.498Z,103135.84
2022-11-12T07:18:48.280Z,103127.78
2022-11-12T07:21:20.464Z,103137.47
2022-11-12T07:23:48.103Z,103144.72
2022-11-12T07:26:17.922Z,103135.63
2022-11-12T07:28:45.944Z,103125.75
2022-11-12T07:31:16.864Z,103127.56
2022-11-12T07:33:44.723Z,103118.75
2022-11-12T07:36:14.840Z,103141.75
2022-11-12T07:38:50.237Z,103149.94
2022-11-12T07:41:21.712Z,103143.50
2022-11-12T07:43:50.407Z,103140.03
2022-11-12T07:46:19.572Z,103142.69
2022-11-12T07:48:46.932Z,103150.66
2022-11-12T07:51:15.352Z,103160.44
2022-11-12T07:53:57.751Z,103148.00
2022-11-12T07:56:26.873Z,103151.44
2022-11-12T07:58:53.388Z,103162.91
2022-11-12T08:01:32.090Z,103167.28
2022-11-12T08:04:04.888Z,103167.97
2022-11-12T08:06:32.582Z,103165.31
2022-11-12T08:09:01.855Z,103159.66
2022-11-12T08:11:28.441Z,103163.13
2022-11-12T08:13:55.038Z,103165.72
2022-11-12T08:16:24.221Z,103170.28
2022-11-12T08:18:50.930Z,103169.19
2022-11-12T08:21:18.426Z,103170.66
2022-11-12T08:23:48.315Z,103176.81
2022-11-12T08:26:21.738Z,103179.44
2022-11-12T08:28:50.551Z,103172.06
2022-11-12T08:31:19.817Z,103179.88
2022-11-12T08:33:46.412Z,103188.75
2022-11-12T08:36:15.229Z,103182.13
2022-11-12T08:38:42.838Z,103173.06
2022-11-12T08:41:14.244Z,103169.97
2022-11-12T08:43:42.122Z,103177.56
2022-11-12T08:46:08.946Z,103175.44
2022-11-12T08:48:35.956Z,103159.25
2022-11-12T08:51:05.893Z,103178.50
2022-11-12T08:53:32.956Z,103175.59
2022-11-12T08:55:59.894Z,103179.69
2022-11-12T08:58:27.050Z,103177.59
2022-11-12T09:00:54.346Z,103166.66
2022-11-12T09:03:23.385Z,103185.69
2022-11-12T09:05:53.794Z,103174.38
2022-11-12T09:08:23.651Z,103176.34
2022-11-12T09:10:51.462Z,103167.47
2022-11-12T09:13:20.382Z,103170.41
2022-11-12T09:15:47.506Z,103162.03
2022-11-12T09:18:16.422Z,103164.47
2022-11-12T09:20:43.165Z,103164.84
2022-11-12T09:23:12.028Z,103169.19
2022-11-12T09:25:42.121Z,103171.75
2022-11-12T09:28:17.850Z,103174.22
2022-11-12T09:30:49.660Z,103174.31
2022-11-12T09:33:34.376Z,103173.03
2022-11-12T09:36:02.295Z,103173.28
2022-11-12T09:38:31.553Z,103173.72
2022-11-12T09:41:22.512Z,103170.47
2022-11-12T09:43:56.988Z,103173.78
2022-11-12T09:46:41.892Z,103167.97
2022-11-12T09:49:17.351Z,103172.44
2022-11-12T09:51:48.789Z,103164.88
2022-11-12T09:54:23.592Z,103171.88
2022-11-12T09:56:54.039Z,103160.28
2022-11-12T09:59:22.644Z,103166.91
2022-11-12T10:01:55.033Z,103168.97
2022-11-12T10:04:26.267Z,103182.06
2022-11-12T10:07:09.314Z,103176.22
2022-11-12T10:09:58.893Z,103175.44
2022-11-12T10:12:44.423Z,103177.41
2022-11-12T10:16:06.872Z,103163.84
2022-11-12T10:18:51.715Z,103153.19
2022-11-12T10:21:45.655Z,103157.84
2022-11-12T10:24:14.975Z,103164.34
2022-11-12T10:26:41.538Z,103150.47
2022-11-12T10:29:11.101Z,103150.28
2022-11-12T10:31:38.959Z,103153.66
2022-11-12T10:34:17.173Z,103147.03
2022-11-12T10:36:48.875Z,103147.28
2022-11-12T10:39:36.638Z,103144.78
2022-11-12T10:42:08.295Z,103147.00
2022-11-12T10:44:35.087Z,103142.75
2022-11-12T10:47:25.569Z,103134.88
2022-11-12T10:50:14.129Z,103125.94
2022-11-12T10:52:53.716Z,103128.78
2022-11-12T10:55:26.631Z,103120.81
2022-11-12T10:58:09.936Z,103118.16
2022-11-12T11:00:38.498Z,103116.19
2022-11-12T11:03:25.738Z,103105.22
2022-11-12T11:06:03.056Z,103088.66
2022-11-12T11:08:47.977Z,103110.69
2022-11-12T11:11:21.745Z,103092.19
2022-11-12T11:13:55.366Z,103094.25
2022-11-12T11:16:27.970Z,103096.16
2022-11-12T11:18:58.088Z,103104.78
2022-11-12T11:21:46.362Z,103107.06
2022-11-12T11:24:30.017Z,103102.16
2022-11-12T11:27:05.588Z,103095.97
2022-11-12T11:29:50.512Z,103100.16
2022-11-12T11:32:55.461Z,103106.06
2022-11-12T11:35:37.101Z,103098.31
2022-11-12T11:38:27.955Z,103096.69
2022-11-12T11:41:19.720Z,103094.19
2022-11-12T11:44:24.536Z,103092.31
2022-11-12T11:47:34.283Z,103085.41
2022-11-12T11:50:25.683Z,103081.19
2022-11-12T11:53:09.233Z,103083.66
2022-11-12T11:55:42.432Z,103085.59
2022-11-12T11:58:49.885Z,103076.22
2022-11-12T12:01:35.269Z,103072.69
2022-11-12T12:04:33.891Z,103069.41
2022-11-12T12:07:12.535Z,103059.97
2022-11-12T12:09:53.018Z,103041.94
2022-11-12T12:12:26.714Z,103056.16
2022-11-12T12:15:17.810Z,103050.47
2022-11-12T12:18:06.730Z,103047.00
2022-11-12T12:20:43.429Z,103047.19
2022-11-12T12:23:23.610Z,103053.22
2022-11-12T12:25:56.115Z,103046.59
2022-11-12T12:28:52.659Z,103040.34
2022-11-12T12:31:24.830Z,103030.06
2022-11-12T12:33:56.828Z,103028.34
2022-11-12T12:36:39.926Z,103022.19
2022-11-12T12:39:34.840Z,103017.06
2022-11-12T12:42:22.147Z,103013.59
2022-11-12T12:45:05.049Z,103007.75
2022-11-12T12:47:38.301Z,103019.91
2022-11-12T12:50:11.877Z,103007.69
2022-11-12T12:53:15.639Z,103020.34
2022-11-12T12:55:46.921Z,103014.75
2022-11-12T12:58:22.132Z,103017.78
2022-11-12T13:00:51.431Z,103008.81
2022-11-12T13:03:42.864Z,103007.22
2022-11-12T13:06:22.098Z,102996.75
2022-11-12T13:09:03.019Z,102989.00
2022-11-12T13:12:00.429Z,102997.81
2022-11-12T13:14:36.004Z,102990.41
2022-11-12T13:17:08.509Z,102994.75
2022-11-12T13:19:45.607Z,102983.53
2022-11-12T13:22:18.465Z,102989.03
2022-11-12T13:25:00.315Z,102987.44
2022-11-12T13:27:45.106Z,102986.41
2022-11-12T13:30:14.365Z,102984.06
2022-11-12T13:32:44.109Z,102976.84
2022-11-12T13:35:22.995Z,102979.25
2022-11-12T13:37:52.756Z,102984.13
2022-11-12T13:40:19.254Z,102979.66
2022-11-12T13:42:49.218Z,102966.28
2022-11-12T13:45:22.394Z,102974.69
2022-11-12T13:47:49.164Z,102975.56
2022-11-12T13:50:24.962Z,102975.56
2022-11-12T13:52:54.709Z,102969.19
2022-11-12T13:55:22.734Z,102975.56
2022-11-12T13:57:54.729Z,102971.34
2022-11-12T14:00:28.965Z,102961.59
2022-11-12T14:03:02.420Z,102953.25
2022-11-12T14:05:33.648Z,102971.66
2022-11-12T14:08:20.718Z,102978.16
2022-11-12T14:11:11.310Z,102968.66
2022-11-12T14:13:56.274Z,102972.41
2022-11-12T14:16:35.243Z,102968.31
2022-11-12T14:19:20.901Z,102959.44
2022-11-12T14:22:02.135Z,102961.84
2022-11-12T14:24:28.939Z,102978.09
2022-11-12T14:26:57.859Z,102968.25
2022-11-12T14:29:26.754Z,102964.00
2022-11-12T14:32:02.296Z,102964.13
2022-11-12T14:34:33.642Z,102960.78
2022-11-12T14:37:01.297Z,102960.28
2022-11-12T14:39:31.650Z,102950.69
2022-11-12T14:42:01.574Z,102958.16
2022-11-12T14:44:36.941Z,102942.81
2022-11-12T14:47:04.413Z,102943.63
2022-11-12T14:49:44.856Z,102956.34
2022-11-12T14:52:26.747Z,102949.63
2022-11-12T14:55:00.824Z,102951.00
2022-11-12T14:57:30.061Z,102940.16
2022-11-12T14:59:57.402Z,102955.41
2022-11-12T15:02:47.289Z,102952.16
2022-11-12T15:05:21.050Z,102955.16
2022-11-12T15:08:02.514Z,102950.06
2022-11-12T15:10:31.985Z,102946.09
2022-11-12T15:13:24.451Z,102949.94
2022-11-12T15:15:55.933Z,102944.81
2022-11-12T15:18:29.560Z,102946.47
2022-11-12T15:21:19.395Z,102954.09
2022-11-12T15:24:03.694Z,102947.44
2022-11-12T15:26:36.396Z,102954.06
2022-11-12T15:29:27.741Z,102947.66
2022-11-12T15:32:01.136Z,102937.72
2022-11-12T15:34:48.058Z,102949.78
2022-11-12T15:37:19.623Z,102948.69
2022-11-12T15:39:52.673Z,102944.66
2022-11-12T15:42:27.838Z,102944.41
2022-11-12T15:45:00.475Z,102936.88
2022-11-12T15:47:27.292Z,102942.13
2022-11-12T15:49:56.618Z,102940.97
2022-11-12T15:52:23.307Z,102944.31
2022-11-12T15:54:50.141Z,102936.81
2022-11-12T15:57:29.093Z,102934.56
2022-11-12T16:00:07.893Z,102935.25
2022-11-12T16:02:35.511Z,102924.88
2022-11-12T16:05:04.684Z,102932.41
2022-11-12T16:07:33.438Z,102925.47
2022-11-12T16:10:00.160Z,102932.00
2022-11-12T16:12:27.625Z,102925.03
2022-11-12T16:14:54.367Z,102924.00
2022-11-12T16:17:21.305Z,102928.19
2022-11-12T16:19:47.902Z,102923.19
2022-11-12T16:22:14.408Z,102923.88
2022-11-12T16:24:44.146Z,102928.81
2022-11-12T16:27:16.856Z,102923.91
2022-11-12T16:29:45.518Z,102925.38
2022-11-12T16:32:13.966Z,102919.44
2022-11-12T16:34:48.218Z,102914.56
2022-11-12T16:37:16.054Z,102926.81
2022-11-12T16:39:42.592Z,102926.13
2022-11-12T16:42:12.593Z,102912.38
2022-11-12T16:44:39.099Z,102914.91
2022-11-12T16:47:05.670Z,102922.38
2022-11-12T16:49:35.891Z,102914.94
2022-11-12T16:52:05.238Z,102925.13
2022-11-12T16:54:31.939Z,102907.16
2022-11-12T16:56:58.573Z,102923.38
2022-11-12T16:59:27.435Z,102913.75
2022-11-12T17:01:53.998Z,102923.25
2022-11-12T17:04:20.651Z,102917.13
2022-11-12T17:06:47.191Z,102933.66
2022-11-12T17:09:16.255Z,102903.75
2022-11-12T17:11:43.048Z,102924.91
2022-11-12T17:14:10.993Z,102918.75
2022-11-12T17:16:39.805Z,102923.44
2022-11-12T17:19:06.500Z,102931.84
2022-11-12T17:21:33.082Z,102923.00
2022-11-12T17:23:59.590Z,102911.28
2022-11-12T17:26:26.160Z,102919.59
2022-11-12T17:28:58.570Z,102912.47
2022-11-12T17:31:28.089Z,102910.75
2022-11-12T17:33:56.832Z,102912.78
2022-11-12T17:36:25.911Z,102896.28
2022-11-12T17:38:57.162Z,102898.13
2022-11-12T17:41:23.991Z,102904.50
2022-11-12T17:43:57.405Z,102898.34
2022-11-12T17:46:23.985Z,102901.28
2022-11-12T17:48:51.246Z,102899.00
2022-11-12T17:51:20.528Z,102902.72
2022-11-12T17:53:47.267Z,102907.53
2022-11-12T17:56:16.324Z,102901.84
2022-11-12T17:58:45.372Z,102908.59
2022-11-12T18:01:15.310Z,102904.34
2022-11-12T18:03:44.066Z,102904.53
2022-11-12T18:06:16.578Z,102911.19
2022-11-12T18:08:43.579Z,102909.06
2022-11-12T18:11:14.370Z,102915.53
2022-11-12T18:13:41.126Z,102913.31
2022-11-12T18:16:16.389Z,102910.97
2022-11-12T18:18:46.479Z,102908.75
2022-11-12T18:21:13.326Z,102920.69
2022-11-12T18:23:42.179Z,102918.44
2022-11-12T18:26:08.789Z,102915.25
2022-11-12T18:28:35.702Z,102917.50
2022-11-12T18:31:04.454Z,102916.94
2022-11-12T18:33:31.572Z,102911.22
2022-11-12T18:36:06.783Z,102908.56
2022-11-12T18:38:34.787Z,102902.84
2022-11-12T18:41:10.070Z,102908.19
2022-11-12T18:43:37.215Z,102908.41
2022-11-12T18:46:04.804Z,102910.31
2022-11-12T18:48:33.426Z,102910.03
2022-11-12T18:51:02.516Z,102902.47
2022-11-12T18:53:32.250Z,102902.75
2022-11-12T18:56:02.133Z,102898.78
2022-11-12T18:58:34.628Z,102898.44
2022-11-12T19:01:10.413Z,102902.75
2022-11-12T19:03:37.431Z,102905.69
2022-11-12T19:06:07.261Z,102903.19
2022-11-12T19:08:36.661Z,102902.72
2022-11-12T19:11:05.891Z,102903.78
2022-11-12T19:13:32.729Z,102898.13
2022-11-12T19:16:07.482Z,102889.19
2022-11-12T19:18:37.674Z,102897.75
2022-11-12T19:21:07.691Z,102898.50
2022-11-12T19:23:34.809Z,102899.41
2022-11-12T19:26:02.767Z,102899.50
2022-11-12T19:28:30.381Z,102899.69
2022-11-12T19:31:03.703Z,102890.84
2022-11-12T19:33:30.289Z,102891.03
2022-11-12T19:36:06.734Z,102884.97
2022-11-12T19:38:33.994Z,102888.19
2022-11-12T19:41:17.769Z,102889.22
2022-11-12T19:43:45.846Z,102894.00
2022-11-12T19:46:12.422Z,102894.19
2022-11-12T19:48:39.349Z,102879.19
2022-11-12T19:51:08.753Z,102895.56
2022-11-12T19:53:38.509Z,102867.19
2022-11-12T19:56:06.685Z,102874.59
2022-11-12T19:58:34.280Z,102884.44
2022-11-12T20:01:06.209Z,102884.63
2022-11-12T20:03:35.557Z,102868.91
2022-11-12T20:06:05.093Z,102865.94
2022-11-12T20:08:34.124Z,102875.66
2022-11-12T20:11:01.791Z,102877.75
2022-11-12T20:13:28.508Z,102879.81
2022-11-12T20:15:55.266Z,102887.56
2022-11-12T20:18:21.867Z,102892.22
2022-11-12T20:20:51.039Z,102894.06
2022-11-12T20:23:17.871Z,102885.28
2022-11-12T20:25:44.357Z,102879.25
2022-11-12T20:28:11.778Z,102883.13
2022-11-12T20:30:38.471Z,102861.88
2022-11-12T20:33:05.209Z,102868.28
2022-11-12T20:35:40.063Z,102874.53
2022-11-12T20:38:09.130Z,102871.19
2022-11-12T20:40:35.681Z,102867.88
2022-11-12T20:43:02.498Z,102881.56
2022-11-12T20:45:31.318Z,102878.06
2022-11-12T20:47:57.969Z,102876.38
2022-11-12T20:50:24.776Z,102864.91
2022-11-12T20:52:54.074Z,102857.88
2022-11-12T20:55:20.723Z,102857.97
2022-11-12T20:57:47.617Z,102854.44
2022-11-12T21:00:22.896Z,102858.25
2022-11-12T21:02:50.628Z,102851.13
2022-11-12T21:05:19.639Z,102856.66
2022-11-12T21:07:51.292Z,102856.81
2022-11-12T21:10:20.336Z,102860.69
2022-11-12T21:12:46.788Z,102858.16
2022-11-12T21:15:16.022Z,102848.56
2022-11-12T21:17:42.538Z,102856.72
2022-11-12T21:20:09.535Z,102847.00
2022-11-12T21:22:36.385Z,102847.16
2022-11-12T21:25:03.083Z,102839.16
2022-11-12T21:27:31.915Z,102843.81
2022-11-12T21:29:58.938Z,102843.81
2022-11-12T21:32:25.663Z,102835.91
2022-11-12T21:34:58.581Z,102830.66
2022-11-12T21:37:27.637Z,102819.16
2022-11-12T21:39:54.123Z,102834.44
2022-11-12T21:42:20.676Z,102826.28
2022-11-12T21:44:47.523Z,102825.47
2022-11-12T21:47:14.424Z,102825.47
2022-11-12T21:49:43.227Z,102820.84
2022-11-12T21:52:12.699Z,102834.16
2022-11-12T21:54:40.254Z,102832.16
2022-11-12T21:57:07.029Z,102827.41
2022-11-12T21:59:33.613Z,102823.63
2022-11-12T22:02:00.109Z,102825.25
2022-11-12T22:04:29.341Z,102815.31
2022-11-12T22:06:55.849Z,102826.81
2022-11-12T22:09:22.364Z,102826.63
2022-11-12T22:11:48.923Z,102814.19
2022-11-12T22:14:15.795Z,102819.38
2022-11-12T22:16:42.469Z,102816.75
2022-11-12T22:19:09.740Z,102817.00
2022-11-12T22:21:39.895Z,102819.53
2022-11-12T22:24:07.524Z,102805.47
2022-11-12T22:26:34.400Z,102811.72
2022-11-12T22:29:01.137Z,102803.03
2022-11-12T22:31:29.809Z,102809.41
2022-11-12T22:33:58.310Z,102812.13
2022-11-12T22:36:27.421Z,102805.13
2022-11-12T22:38:54.860Z,102806.09
2022-11-12T22:41:34.042Z,102802.75
2022-11-12T22:44:02.772Z,102801.88
2022-11-12T22:46:34.825Z,102799.44
2022-11-12T22:49:03.693Z,102798.72
2022-11-12T22:51:31.850Z,102794.25
2022-11-12T22:54:01.231Z,102789.22
2022-11-12T22:56:28.950Z,102795.53
2022-11-12T22:58:58.475Z,102789.31
2022-11-12T23:01:28.078Z,102790.38
2022-11-12T23:03:57.339Z,102790.56
2022-11-12T23:06:25.244Z,102790.63
2022-11-12T23:08:53.486Z,102779.25
2022-11-12T23:11:21.029Z,102778.25
2022-11-12T23:13:48.409Z,102781.13
2022-11-12T23:16:18.011Z,102768.94
2022-11-12T23:18:47.412Z,102765.53
2022-11-12T23:21:23.831Z,102771.84
2022-11-12T23:23:50.959Z,102775.59
2022-11-12T23:26:23.066Z,102773.06
2022-11-12T23:28:50.589Z,102769.53
2022-11-12T23:31:22.987Z,102758.91
2022-11-12T23:33:55.122Z,102757.00
2022-11-12T23:36:23.463Z,102758.91
2022-11-12T23:38:51.239Z,102756.38
2022-11-12T23:41:22.983Z,102763.56
2022-11-12T23:43:50.312Z,102758.22
2022-11-12T23:46:19.092Z,102759.38
2022-11-12T23:48:46.038Z,102762.06
2022-11-12T23:51:24.723Z,102752.16
2022-11-12T23:53:51.420Z,102760.31
2022-11-12T23:56:19.968Z,102753.03
2022-11-12T23:58:46.921Z,102753.03
